sensor_id;sensor_type;location;lat;lon;timestamp;temperature;humidity
84176;DHT22;74306;40.114;18.304;2024-01-15T00:02:05;11.40;78.10
84176;DHT22;74306;40.114;18.304;2024-01-15T00:04:38;11.40;78.00
84176;DHT22;74306;40.114;18.304;2024-01-15T00:07:09;11.40;78.00
84176;DHT22;74306;40.114;18.304;2024-01-15T00:09:40;11.40;78.20
84176;DHT22;74306;40.114;18.304;2024-01-15T00:12:09;11.50;78.60
84176;DHT22;74306;40.114;18.304;2024-01-15T00:14:38;11.50;78.20
84176;DHT22;74306;40.114;18.304;2024-01-15T00:17:08;11.60;78.50
84176;DHT22;74306;40.114;18.304;2024-01-15T00:19:38;11.60;78.30
84176;DHT22;74306;40.114;18.304;2024-01-15T00:22:08;11.70;78.20
84176;DHT22;74306;40.114;18.304;2024-01-15T00:24:37;11.70;78.20
84176;DHT22;74306;40.114;18.304;2024-01-15T00:27:06;11.70;78.00
84176;DHT22;74306;40.114;18.304;2024-01-15T00:29:36;11.80;78.10
84176;DHT22;74306;40.114;18.304;2024-01-15T00:32:06;11.80;78.10
84176;DHT22;74306;40.114;18.304;2024-01-15T00:34:35;11.80;77.90
84176;DHT22;74306;40.114;18.304;2024-01-15T00:37:06;11.80;78.00
84176;DHT22;74306;40.114;18.304;2024-01-15T00:39:35;11.90;77.80
84176;DHT22;74306;40.114;18.304;2024-01-15T00:42:05;11.80;77.90
84176;DHT22;74306;40.114;18.304;2024-01-15T00:44:35;11.90;78.00
84176;DHT22;74306;40.114;18.304;2024-01-15T00:47:04;11.80;78.60
84176;DHT22;74306;40.114;18.304;2024-01-15T00:49:34;11.80;78.60
84176;DHT22;74306;40.114;18.304;2024-01-15T00:52:03;11.90;78.40
84176;DHT22;74306;40.114;18.304;2024-01-15T00:54:34;11.80;78.40
84176;DHT22;74306;40.114;18.304;2024-01-15T00:57:04;11.80;78.80
84176;DHT22;74306;40.114;18.304;2024-01-15T00:59:33;11.80;78.70
84176;DHT22;74306;40.114;18.304;2024-01-15T01:02:02;11.80;78.80
84176;DHT22;74306;40.114;18.304;2024-01-15T01:04:31;11.80;79.20
84176;DHT22;74306;40.114;18.304;2024-01-15T01:07:01;12.00;78.70
84176;DHT22;74306;40.114;18.304;2024-01-15T01:09:30;12.10;78.50
84176;DHT22;74306;40.114;18.304;2024-01-15T01:12:01;12.10;78.70
84176;DHT22;74306;40.114;18.304;2024-01-15T01:14:30;12.20;78.70
84176;DHT22;74306;40.114;18.304;2024-01-15T01:17:00;12.10;78.90
84176;DHT22;74306;40.114;18.304;2024-01-15T01:19:29;12.30;78.50
84176;DHT22;74306;40.114;18.304;2024-01-15T01:21:58;12.40;78.50
84176;DHT22;74306;40.114;18.304;2024-01-15T01:24:28;12.10;79.20
84176;DHT22;74306;40.114;18.304;2024-01-15T01:26:57;12.30;78.90
84176;DHT22;74306;40.114;18.304;2024-01-15T01:29:28;12.30;78.60
84176;DHT22;74306;40.114;18.304;2024-01-15T01:31:57;12.30;78.60
84176;DHT22;74306;40.114;18.304;2024-01-15T01:34:26;12.40;78.40
84176;DHT22;74306;40.114;18.304;2024-01-15T01:36:57;12.40;78.40
84176;DHT22;74306;40.114;18.304;2024-01-15T01:39:26;12.50;78.50
84176;DHT22;74306;40.114;18.304;2024-01-15T01:41:55;12.50;78.50
84176;DHT22;74306;40.114;18.304;2024-01-15T01:44:25;12.50;78.60
84176;DHT22;74306;40.114;18.304;2024-01-15T01:46:56;12.60;78.40
84176;DHT22;74306;40.114;18.304;2024-01-15T01:49:26;12.60;78.40
84176;DHT22;74306;40.114;18.304;2024-01-15T01:51:57;12.60;78.10
84176;DHT22;74306;40.114;18.304;2024-01-15T01:54:29;12.60;78.00
84176;DHT22;74306;40.114;18.304;2024-01-15T01:56:58;12.60;77.80
84176;DHT22;74306;40.114;18.304;2024-01-15T01:59:28;12.50;77.90
84176;DHT22;74306;40.114;18.304;2024-01-15T02:02:00;12.50;78.00
84176;DHT22;74306;40.114;18.304;2024-01-15T02:04:33;12.40;78.10
84176;DHT22;74306;40.114;18.304;2024-01-15T02:07:03;12.40;78.10
84176;DHT22;74306;40.114;18.304;2024-01-15T02:09:32;12.40;78.10
84176;DHT22;74306;40.114;18.304;2024-01-15T02:12:02;12.30;78.60
84176;DHT22;74306;40.114;18.304;2024-01-15T02:14:31;12.20;78.70
84176;DHT22;74306;40.114;18.304;2024-01-15T02:17:02;12.20;78.80
84176;DHT22;74306;40.114;18.304;2024-01-15T02:19:32;12.20;78.90
84176;DHT22;74306;40.114;18.304;2024-01-15T02:22:01;12.20;78.90
84176;DHT22;74306;40.114;18.304;2024-01-15T02:24:32;12.20;78.90
84176;DHT22;74306;40.114;18.304;2024-01-15T02:27:01;12.10;79.30
84176;DHT22;74306;40.114;18.304;2024-01-15T02:29:31;12.20;79.30
84176;DHT22;74306;40.114;18.304;2024-01-15T02:32:04;12.20;79.40
84176;DHT22;74306;40.114;18.304;2024-01-15T02:34:34;12.20;79.60
84176;DHT22;74306;40.114;18.304;2024-01-15T02:37:03;12.20;79.70
84176;DHT22;74306;40.114;18.304;2024-01-15T02:39:34;12.30;79.60
84176;DHT22;74306;40.114;18.304;2024-01-15T02:42:05;12.30;79.80
84176;DHT22;74306;40.114;18.304;2024-01-15T02:44:34;12.20;80.40
84176;DHT22;74306;40.114;18.304;2024-01-15T02:47:04;12.40;80.30
84176;DHT22;74306;40.114;18.304;2024-01-15T02:49:33;12.30;80.30
84176;DHT22;74306;40.114;18.304;2024-01-15T02:52:03;12.40;80.30
84176;DHT22;74306;40.114;18.304;2024-01-15T02:54:34;12.40;80.20
84176;DHT22;74306;40.114;18.304;2024-01-15T02:57:04;12.50;79.90
84176;DHT22;74306;40.114;18.304;2024-01-15T02:59:33;12.50;80.00
84176;DHT22;74306;40.114;18.304;2024-01-15T03:02:02;12.50;79.70
84176;DHT22;74306;40.114;18.304;2024-01-15T03:04:32;12.60;79.70
84176;DHT22;74306;40.114;18.304;2024-01-15T03:07:01;12.50;79.70
84176;DHT22;74306;40.114;18.304;2024-01-15T03:09:30;12.50;79.60
84176;DHT22;74306;40.114;18.304;2024-01-15T03:12:01;12.60;79.40
84176;DHT22;74306;40.114;18.304;2024-01-15T03:14:31;12.60;79.20
84176;DHT22;74306;40.114;18.304;2024-01-15T03:17:00;12.80;78.90
84176;DHT22;74306;40.114;18.304;2024-01-15T03:19:30;12.70;78.80
84176;DHT22;74306;40.114;18.304;2024-01-15T03:22:00;12.70;78.70
84176;DHT22;74306;40.114;18.304;2024-01-15T03:24:32;12.70;78.70
84176;DHT22;74306;40.114;18.304;2024-01-15T03:27:03;12.70;78.50
84176;DHT22;74306;40.114;18.304;2024-01-15T03:29:32;12.70;78.60
84176;DHT22;74306;40.114;18.304;2024-01-15T03:32:03;12.70;78.50
84176;DHT22;74306;40.114;18.304;2024-01-15T03:34:32;12.70;78.50
84176;DHT22;74306;40.114;18.304;2024-01-15T03:37:01;12.60;78.50
84176;DHT22;74306;40.114;18.304;2024-01-15T03:39:31;12.50;78.70
84176;DHT22;74306;40.114;18.304;2024-01-15T03:42:03;12.60;78.70
84176;DHT22;74306;40.114;18.304;2024-01-15T03:44:32;12.50;78.60
84176;DHT22;74306;40.114;18.304;2024-01-15T03:47:02;12.60;78.80
84176;DHT22;74306;40.114;18.304;2024-01-15T03:49:32;12.50;78.90
84176;DHT22;74306;40.114;18.304;2024-01-15T03:52:01;12.50;79.10
84176;DHT22;74306;40.114;18.304;2024-01-15T03:54:30;12.50;79.10
84176;DHT22;74306;40.114;18.304;2024-01-15T03:57:00;12.50;79.20
84176;DHT22;74306;40.114;18.304;2024-01-15T03:59:30;12.50;79.00
84176;DHT22;74306;40.114;18.304;2024-01-15T04:02:00;12.50;79.20
84176;DHT22;74306;40.114;18.304;2024-01-15T04:04:29;12.50;78.90
84176;DHT22;74306;40.114;18.304;2024-01-15T04:06:58;12.50;79.10
84176;DHT22;74306;40.114;18.304;2024-01-15T04:09:28;12.50;79.50
84176;DHT22;74306;40.114;18.304;2024-01-15T04:11:57;12.50;79.80
84176;DHT22;74306;40.114;18.304;2024-01-15T04:14:26;12.50;79.80
84176;DHT22;74306;40.114;18.304;2024-01-15T04:16:57;12.60;79.50
84176;DHT22;74306;40.114;18.304;2024-01-15T04:19:28;12.60;79.70
84176;DHT22;74306;40.114;18.304;2024-01-15T04:21:57;12.70;79.50
84176;DHT22;74306;40.114;18.304;2024-01-15T04:24:25;12.70;79.30
84176;DHT22;74306;40.114;18.304;2024-01-15T04:26:55;12.80;79.00
84176;DHT22;74306;40.114;18.304;2024-01-15T04:29:24;12.80;79.10
84176;DHT22;74306;40.114;18.304;2024-01-15T04:31:53;12.80;78.90
84176;DHT22;74306;40.114;18.304;2024-01-15T04:34:24;12.80;78.80
84176;DHT22;74306;40.114;18.304;2024-01-15T04:36:54;12.70;78.80
84176;DHT22;74306;40.114;18.304;2024-01-15T04:39:23;12.70;79.00
84176;DHT22;74306;40.114;18.304;2024-01-15T04:41:52;12.70;79.00
84176;DHT22;74306;40.114;18.304;2024-01-15T04:44:22;12.50;79.60
84176;DHT22;74306;40.114;18.304;2024-01-15T04:46:51;12.50;79.70
84176;DHT22;74306;40.114;18.304;2024-01-15T04:49:21;12.40;80.10
84176;DHT22;74306;40.114;18.304;2024-01-15T04:51:51;12.40;80.20
84176;DHT22;74306;40.114;18.304;2024-01-15T04:54:21;12.50;79.90
84176;DHT22;74306;40.114;18.304;2024-01-15T04:56:50;12.60;79.60
84176;DHT22;74306;40.114;18.304;2024-01-15T04:59:19;12.60;79.50
84176;DHT22;74306;40.114;18.304;2024-01-15T05:01:49;12.70;79.00
84176;DHT22;74306;40.114;18.304;2024-01-15T05:04:18;12.80;78.50
84176;DHT22;74306;40.114;18.304;2024-01-15T05:06:47;12.90;78.40
84176;DHT22;74306;40.114;18.304;2024-01-15T05:09:18;12.90;78.00
84176;DHT22;74306;40.114;18.304;2024-01-15T05:11:47;12.90;78.20
84176;DHT22;74306;40.114;18.304;2024-01-15T05:14:17;12.90;78.00
84176;DHT22;74306;40.114;18.304;2024-01-15T05:16:49;12.90;77.90
84176;DHT22;74306;40.114;18.304;2024-01-15T05:19:19;13.00;77.70
84176;DHT22;74306;40.114;18.304;2024-01-15T05:21:48;12.90;77.70
84176;DHT22;74306;40.114;18.304;2024-01-15T05:24:19;12.80;78.40
84176;DHT22;74306;40.114;18.304;2024-01-15T05:26:48;12.90;77.90
84176;DHT22;74306;40.114;18.304;2024-01-15T05:29:18;13.00;77.70
84176;DHT22;74306;40.114;18.304;2024-01-15T05:31:47;13.00;77.60
84176;DHT22;74306;40.114;18.304;2024-01-15T05:34:16;13.10;77.40
84176;DHT22;74306;40.114;18.304;2024-01-15T05:36:46;13.10;77.20
84176;DHT22;74306;40.114;18.304;2024-01-15T05:39:15;13.10;76.80
84176;DHT22;74306;40.114;18.304;2024-01-15T05:41:47;13.10;76.80
84176;DHT22;74306;40.114;18.304;2024-01-15T05:44:16;13.10;77.10
84176;DHT22;74306;40.114;18.304;2024-01-15T05:46:46;13.10;76.90
84176;DHT22;74306;40.114;18.304;2024-01-15T05:49:15;13.20;76.70
84176;DHT22;74306;40.114;18.304;2024-01-15T05:51:44;13.20;76.80
84176;DHT22;74306;40.114;18.304;2024-01-15T05:54:14;13.20;76.70
84176;DHT22;74306;40.114;18.304;2024-01-15T05:56:43;13.30;76.90
84176;DHT22;74306;40.114;18.304;2024-01-15T05:59:14;13.30;76.90
84176;DHT22;74306;40.114;18.304;2024-01-15T06:01:43;13.30;77.00
84176;DHT22;74306;40.114;18.304;2024-01-15T06:04:12;13.20;77.30
84176;DHT22;74306;40.114;18.304;2024-01-15T06:06:42;13.00;78.30
84176;DHT22;74306;40.114;18.304;2024-01-15T06:09:11;12.80;78.60
84176;DHT22;74306;40.114;18.304;2024-01-15T06:11:41;12.90;78.70
84176;DHT22;74306;40.114;18.304;2024-01-15T06:14:10;13.00;78.50
84176;DHT22;74306;40.114;18.304;2024-01-15T06:16:41;13.00;78.70
84176;DHT22;74306;40.114;18.304;2024-01-15T06:19:10;12.90;78.60
84176;DHT22;74306;40.114;18.304;2024-01-15T06:21:41;13.10;77.80
84176;DHT22;74306;40.114;18.304;2024-01-15T06:24:10;13.30;77.00
84176;DHT22;74306;40.114;18.304;2024-01-15T06:26:41;13.30;76.80
84176;DHT22;74306;40.114;18.304;2024-01-15T06:29:10;13.30;76.50
84176;DHT22;74306;40.114;18.304;2024-01-15T06:31:41;13.30;76.60
84176;DHT22;74306;40.114;18.304;2024-01-15T06:34:11;13.30;76.60
84176;DHT22;74306;40.114;18.304;2024-01-15T06:36:40;13.10;76.60
84176;DHT22;74306;40.114;18.304;2024-01-15T06:39:09;13.00;76.40
84176;DHT22;74306;40.114;18.304;2024-01-15T06:41:39;13.10;75.80
84176;DHT22;74306;40.114;18.304;2024-01-15T06:44:11;13.30;75.10
84176;DHT22;74306;40.114;18.304;2024-01-15T06:46:43;13.30;74.90
84176;DHT22;74306;40.114;18.304;2024-01-15T06:49:13;13.30;74.50
84176;DHT22;74306;40.114;18.304;2024-01-15T06:51:42;13.40;74.20
84176;DHT22;74306;40.114;18.304;2024-01-15T06:54:13;13.40;73.80
84176;DHT22;74306;40.114;18.304;2024-01-15T06:56:43;13.40;74.10
84176;DHT22;74306;40.114;18.304;2024-01-15T06:59:12;13.40;74.30
84176;DHT22;74306;40.114;18.304;2024-01-15T07:01:44;13.40;74.40
84176;DHT22;74306;40.114;18.304;2024-01-15T07:04:14;13.30;74.80
84176;DHT22;74306;40.114;18.304;2024-01-15T07:06:43;13.40;74.80
84176;DHT22;74306;40.114;18.304;2024-01-15T07:09:12;13.60;74.20
84176;DHT22;74306;40.114;18.304;2024-01-15T07:11:44;13.40;74.60
84176;DHT22;74306;40.114;18.304;2024-01-15T07:14:14;13.50;74.80
84176;DHT22;74306;40.114;18.304;2024-01-15T07:16:45;13.50;74.80
84176;DHT22;74306;40.114;18.304;2024-01-15T07:19:14;13.60;74.80
84176;DHT22;74306;40.114;18.304;2024-01-15T07:21:44;13.60;74.90
84176;DHT22;74306;40.114;18.304;2024-01-15T07:24:13;13.70;75.00
84176;DHT22;74306;40.114;18.304;2024-01-15T07:26:43;13.70;75.40
84176;DHT22;74306;40.114;18.304;2024-01-15T07:29:12;13.80;75.70
84176;DHT22;74306;40.114;18.304;2024-01-15T07:31:48;13.70;76.60
84176;DHT22;74306;40.114;18.304;2024-01-15T07:34:17;13.80;76.70
84176;DHT22;74306;40.114;18.304;2024-01-15T07:36:47;13.90;76.60
84176;DHT22;74306;40.114;18.304;2024-01-15T07:39:17;13.90;76.80
84176;DHT22;74306;40.114;18.304;2024-01-15T07:41:46;14.00;77.20
84176;DHT22;74306;40.114;18.304;2024-01-15T07:44:15;13.90;77.70
84176;DHT22;74306;40.114;18.304;2024-01-15T07:46:46;14.00;77.90
84176;DHT22;74306;40.114;18.304;2024-01-15T07:49:16;14.20;77.20
84176;DHT22;74306;40.114;18.304;2024-01-15T07:51:45;14.10;78.20
84176;DHT22;74306;40.114;18.304;2024-01-15T07:54:15;14.10;77.90
84176;DHT22;74306;40.114;18.304;2024-01-15T07:56:54;14.10;77.70
84176;DHT22;74306;40.114;18.304;2024-01-15T07:59:23;14.10;77.80
84176;DHT22;74306;40.114;18.304;2024-01-15T08:01:55;14.10;77.70
84176;DHT22;74306;40.114;18.304;2024-01-15T08:04:24;14.20;77.10
84176;DHT22;74306;40.114;18.304;2024-01-15T08:06:53;14.20;77.20
84176;DHT22;74306;40.114;18.304;2024-01-15T08:09:23;14.30;77.00
84176;DHT22;74306;40.114;18.304;2024-01-15T08:11:52;14.50;76.50
84176;DHT22;74306;40.114;18.304;2024-01-15T08:14:21;14.50;76.70
84176;DHT22;74306;40.114;18.304;2024-01-15T08:16:51;14.60;75.80
84176;DHT22;74306;40.114;18.304;2024-01-15T08:19:22;14.70;75.90
84176;DHT22;74306;40.114;18.304;2024-01-15T08:21:51;14.80;75.30
84176;DHT22;74306;40.114;18.304;2024-01-15T08:24:21;14.80;75.00
84176;DHT22;74306;40.114;18.304;2024-01-15T08:26:50;14.70;75.10
84176;DHT22;74306;40.114;18.304;2024-01-15T08:29:20;14.80;75.00
84176;DHT22;74306;40.114;18.304;2024-01-15T08:31:49;14.70;75.40
84176;DHT22;74306;40.114;18.304;2024-01-15T08:34:20;14.80;75.20
84176;DHT22;74306;40.114;18.304;2024-01-15T08:36:49;14.80;75.20
84176;DHT22;74306;40.114;18.304;2024-01-15T08:39:20;14.90;75.30
84176;DHT22;74306;40.114;18.304;2024-01-15T08:41:49;15.00;75.20
84176;DHT22;74306;40.114;18.304;2024-01-15T08:44:19;15.00;75.20
84176;DHT22;74306;40.114;18.304;2024-01-15T08:46:48;15.00;75.30
84176;DHT22;74306;40.114;18.304;2024-01-15T08:49:17;15.10;75.30
84176;DHT22;74306;40.114;18.304;2024-01-15T08:51:48;15.00;75.50
84176;DHT22;74306;40.114;18.304;2024-01-15T08:54:17;15.20;74.80
84176;DHT22;74306;40.114;18.304;2024-01-15T08:56:47;15.30;74.60
84176;DHT22;74306;40.114;18.304;2024-01-15T08:59:16;15.40;74.10
84176;DHT22;74306;40.114;18.304;2024-01-15T09:01:52;15.50;73.80
84176;DHT22;74306;40.114;18.304;2024-01-15T09:04:21;15.20;74.80
84176;DHT22;74306;40.114;18.304;2024-01-15T09:06:52;15.10;75.60
84176;DHT22;74306;40.114;18.304;2024-01-15T09:09:21;15.30;74.50
84176;DHT22;74306;40.114;18.304;2024-01-15T09:11:52;15.40;74.60
84176;DHT22;74306;40.114;18.304;2024-01-15T09:14:22;15.40;75.00
84176;DHT22;74306;40.114;18.304;2024-01-15T09:16:53;15.60;74.10
84176;DHT22;74306;40.114;18.304;2024-01-15T09:19:22;15.70;73.30
84176;DHT22;74306;40.114;18.304;2024-01-15T09:21:54;15.60;73.40
84176;DHT22;74306;40.114;18.304;2024-01-15T09:24:23;15.50;73.50
84176;DHT22;74306;40.114;18.304;2024-01-15T09:26:53;15.60;73.20
84176;DHT22;74306;40.114;18.304;2024-01-15T09:29:22;15.70;72.50
84176;DHT22;74306;40.114;18.304;2024-01-15T09:31:52;15.80;72.60
84176;DHT22;74306;40.114;18.304;2024-01-15T09:34:21;15.60;72.80
84176;DHT22;74306;40.114;18.304;2024-01-15T09:36:50;15.40;73.10
84176;DHT22;74306;40.114;18.304;2024-01-15T09:39:21;15.30;73.30
84176;DHT22;74306;40.114;18.304;2024-01-15T09:41:51;15.10;74.00
84176;DHT22;74306;40.114;18.304;2024-01-15T09:44:21;15.30;74.00
84176;DHT22;74306;40.114;18.304;2024-01-15T09:46:52;15.70;73.20
84176;DHT22;74306;40.114;18.304;2024-01-15T09:49:22;15.70;72.90
84176;DHT22;74306;40.114;18.304;2024-01-15T09:51:52;15.50;73.40
84176;DHT22;74306;40.114;18.304;2024-01-15T09:54:24;15.70;73.20
84176;DHT22;74306;40.114;18.304;2024-01-15T09:56:54;15.50;73.30
84176;DHT22;74306;40.114;18.304;2024-01-15T09:59:24;15.70;73.50
84176;DHT22;74306;40.114;18.304;2024-01-15T10:01:55;15.80;73.50
84176;DHT22;74306;40.114;18.304;2024-01-15T10:04:26;16.10;72.30
84176;DHT22;74306;40.114;18.304;2024-01-15T10:06:56;16.40;72.40
84176;DHT22;74306;40.114;18.304;2024-01-15T10:09:28;16.40;71.90
84176;DHT22;74306;40.114;18.304;2024-01-15T10:11:58;16.30;71.70
84176;DHT22;74306;40.114;18.304;2024-01-15T10:14:28;16.30;72.20
84176;DHT22;74306;40.114;18.304;2024-01-15T10:16:57;16.30;71.80
84176;DHT22;74306;40.114;18.304;2024-01-15T10:19:26;16.40;71.60
84176;DHT22;74306;40.114;18.304;2024-01-15T10:21:57;16.50;71.20
84176;DHT22;74306;40.114;18.304;2024-01-15T10:24:29;16.70;70.40
84176;DHT22;74306;40.114;18.304;2024-01-15T10:27:05;16.50;70.40
84176;DHT22;74306;40.114;18.304;2024-01-15T10:29:35;16.70;70.30
84176;DHT22;74306;40.114;18.304;2024-01-15T10:32:06;16.70;69.90
84176;DHT22;74306;40.114;18.304;2024-01-15T10:34:40;16.80;69.10
84176;DHT22;74306;40.114;18.304;2024-01-15T10:37:11;16.50;69.30
84176;DHT22;74306;40.114;18.304;2024-01-15T10:39:41;16.50;69.20
84176;DHT22;74306;40.114;18.304;2024-01-15T10:42:12;16.60;68.00
84176;DHT22;74306;40.114;18.304;2024-01-15T10:44:41;16.30;68.80
84176;DHT22;74306;40.114;18.304;2024-01-15T10:47:12;16.20;68.90
84176;DHT22;74306;40.114;18.304;2024-01-15T10:49:41;16.60;67.60
84176;DHT22;74306;40.114;18.304;2024-01-15T10:52:10;16.40;67.50
84176;DHT22;74306;40.114;18.304;2024-01-15T10:54:41;16.70;66.50
84176;DHT22;74306;40.114;18.304;2024-01-15T10:57:13;16.60;66.20
84176;DHT22;74306;40.114;18.304;2024-01-15T10:59:44;16.60;65.60
84176;DHT22;74306;40.114;18.304;2024-01-15T11:02:14;16.90;65.00
84176;DHT22;74306;40.114;18.304;2024-01-15T11:04:45;17.50;64.30
84176;DHT22;74306;40.114;18.304;2024-01-15T11:07:14;17.30;63.00
84176;DHT22;74306;40.114;18.304;2024-01-15T11:09:47;17.70;61.70
84176;DHT22;74306;40.114;18.304;2024-01-15T11:12:18;17.80;61.90
84176;DHT22;74306;40.114;18.304;2024-01-15T11:14:48;17.60;61.40
84176;DHT22;74306;40.114;18.304;2024-01-15T11:17:18;17.70;62.00
84176;DHT22;74306;40.114;18.304;2024-01-15T11:19:48;17.50;63.20
84176;DHT22;74306;40.114;18.304;2024-01-15T11:22:47;17.30;64.00
84176;DHT22;74306;40.114;18.304;2024-01-15T11:25:18;17.00;65.80
84176;DHT22;74306;40.114;18.304;2024-01-15T11:27:50;16.90;66.10
84176;DHT22;74306;40.114;18.304;2024-01-15T11:30:20;17.20;65.90
84176;DHT22;74306;40.114;18.304;2024-01-15T11:32:53;17.70;64.60
84176;DHT22;74306;40.114;18.304;2024-01-15T11:35:23;18.20;62.90
84176;DHT22;74306;40.114;18.304;2024-01-15T11:38:26;17.90;63.50
84176;DHT22;74306;40.114;18.304;2024-01-15T11:40:58;18.40;61.80
84176;DHT22;74306;40.114;18.304;2024-01-15T11:43:30;18.20;62.60
84176;DHT22;74306;40.114;18.304;2024-01-15T11:46:02;18.00;62.70
84176;DHT22;74306;40.114;18.304;2024-01-15T11:48:42;18.00;62.70
84176;DHT22;74306;40.114;18.304;2024-01-15T11:51:12;18.20;63.50
84176;DHT22;74306;40.114;18.304;2024-01-15T11:53:45;18.80;60.60
84176;DHT22;74306;40.114;18.304;2024-01-15T11:56:18;18.50;58.30
84176;DHT22;74306;40.114;18.304;2024-01-15T11:58:50;18.20;60.00
84176;DHT22;74306;40.114;18.304;2024-01-15T12:01:19;18.60;59.40
84176;DHT22;74306;40.114;18.304;2024-01-15T12:03:49;18.90;58.80
84176;DHT22;74306;40.114;18.304;2024-01-15T12:06:18;18.20;60.80
84176;DHT22;74306;40.114;18.304;2024-01-15T12:08:47;17.90;62.40
84176;DHT22;74306;40.114;18.304;2024-01-15T12:11:20;17.60;64.00
84176;DHT22;74306;40.114;18.304;2024-01-15T12:13:52;17.30;61.60
84176;DHT22;74306;40.114;18.304;2024-01-15T12:16:22;16.80;61.70
84176;DHT22;74306;40.114;18.304;2024-01-15T12:18:52;16.60;62.80
84176;DHT22;74306;40.114;18.304;2024-01-15T12:21:21;16.50;63.60
84176;DHT22;74306;40.114;18.304;2024-01-15T12:23:51;16.40;64.40
84176;DHT22;74306;40.114;18.304;2024-01-15T12:26:22;16.30;65.40
84176;DHT22;74306;40.114;18.304;2024-01-15T12:28:51;16.20;66.00
84176;DHT22;74306;40.114;18.304;2024-01-15T12:31:21;16.40;66.20
84176;DHT22;74306;40.114;18.304;2024-01-15T12:33:50;16.30;66.80
84176;DHT22;74306;40.114;18.304;2024-01-15T12:36:21;16.20;67.50
84176;DHT22;74306;40.114;18.304;2024-01-15T12:38:50;16.00;68.20
84176;DHT22;74306;40.114;18.304;2024-01-15T12:41:21;15.80;68.50
84176;DHT22;74306;40.114;18.304;2024-01-15T12:43:51;15.90;68.60
84176;DHT22;74306;40.114;18.304;2024-01-15T12:46:20;15.80;69.20
84176;DHT22;74306;40.114;18.304;2024-01-15T12:48:50;16.10;68.50
84176;DHT22;74306;40.114;18.304;2024-01-15T12:51:24;16.00;68.60
84176;DHT22;74306;40.114;18.304;2024-01-15T12:53:54;15.90;68.70
84176;DHT22;74306;40.114;18.304;2024-01-15T12:56:25;15.90;68.10
84176;DHT22;74306;40.114;18.304;2024-01-15T12:58:54;15.70;69.10
84176;DHT22;74306;40.114;18.304;2024-01-15T13:01:24;15.60;70.00
84176;DHT22;74306;40.114;18.304;2024-01-15T13:03:53;15.50;70.90
84176;DHT22;74306;40.114;18.304;2024-01-15T13:06:22;15.00;73.10
84176;DHT22;74306;40.114;18.304;2024-01-15T13:08:52;15.20;73.10
84176;DHT22;74306;40.114;18.304;2024-01-15T13:11:21;15.10;73.40
84176;DHT22;74306;40.114;18.304;2024-01-15T13:13:52;14.80;74.60
84176;DHT22;74306;40.114;18.304;2024-01-15T13:16:21;14.70;75.40
84176;DHT22;74306;40.114;18.304;2024-01-15T13:18:52;14.90;74.90
84176;DHT22;74306;40.114;18.304;2024-01-15T13:21:21;14.70;75.60
84176;DHT22;74306;40.114;18.304;2024-01-15T13:23:50;15.00;75.20
84176;DHT22;74306;40.114;18.304;2024-01-15T13:26:20;15.10;75.20
84176;DHT22;74306;40.114;18.304;2024-01-15T13:28:50;15.10;75.10
84176;DHT22;74306;40.114;18.304;2024-01-15T13:31:21;15.10;75.20
84176;DHT22;74306;40.114;18.304;2024-01-15T13:33:50;14.80;75.60
84176;DHT22;74306;40.114;18.304;2024-01-15T13:36:20;15.00;74.80
84176;DHT22;74306;40.114;18.304;2024-01-15T13:38:49;14.80;74.50
84176;DHT22;74306;40.114;18.304;2024-01-15T13:41:19;14.80;74.60
84176;DHT22;74306;40.114;18.304;2024-01-15T13:43:51;14.80;74.20
84176;DHT22;74306;40.114;18.304;2024-01-15T13:46:22;14.50;75.30
84176;DHT22;74306;40.114;18.304;2024-01-15T13:48:53;14.60;75.30
84176;DHT22;74306;40.114;18.304;2024-01-15T13:51:22;14.70;74.90
84176;DHT22;74306;40.114;18.304;2024-01-15T13:53:52;14.90;74.50
84176;DHT22;74306;40.114;18.304;2024-01-15T13:56:22;14.90;74.60
84176;DHT22;74306;40.114;18.304;2024-01-15T13:58:52;15.10;74.20
84176;DHT22;74306;40.114;18.304;2024-01-15T14:01:22;14.90;74.50
84176;DHT22;74306;40.114;18.304;2024-01-15T14:03:51;14.80;75.40
84176;DHT22;74306;40.114;18.304;2024-01-15T14:06:21;14.80;75.50
84176;DHT22;74306;40.114;18.304;2024-01-15T14:08:52;14.90;75.50
84176;DHT22;74306;40.114;18.304;2024-01-15T14:11:21;14.70;76.00
84176;DHT22;74306;40.114;18.304;2024-01-15T14:13:52;14.80;75.90
84176;DHT22;74306;40.114;18.304;2024-01-15T14:16:21;14.60;76.60
84176;DHT22;74306;40.114;18.304;2024-01-15T14:18:50;14.50;77.20
84176;DHT22;74306;40.114;18.304;2024-01-15T14:21:20;14.70;76.80
84176;DHT22;74306;40.114;18.304;2024-01-15T14:23:49;14.60;77.00
84176;DHT22;74306;40.114;18.304;2024-01-15T14:26:18;14.80;76.80
84176;DHT22;74306;40.114;18.304;2024-01-15T14:28:48;14.90;76.60
84176;DHT22;74306;40.114;18.304;2024-01-15T14:31:20;14.90;76.70
84176;DHT22;74306;40.114;18.304;2024-01-15T14:33:49;14.80;77.30
84176;DHT22;74306;40.114;18.304;2024-01-15T14:36:18;14.70;77.80
84176;DHT22;74306;40.114;18.304;2024-01-15T14:38:48;14.80;77.70
84176;DHT22;74306;40.114;18.304;2024-01-15T14:41:17;14.90;77.30
84176;DHT22;74306;40.114;18.304;2024-01-15T14:43:47;14.90;77.40
84176;DHT22;74306;40.114;18.304;2024-01-15T14:46:16;14.80;77.70
84176;DHT22;74306;40.114;18.304;2024-01-15T14:48:46;15.00;77.10
84176;DHT22;74306;40.114;18.304;2024-01-15T14:51:16;15.10;76.80
84176;DHT22;74306;40.114;18.304;2024-01-15T14:53:45;15.10;76.70
84176;DHT22;74306;40.114;18.304;2024-01-15T14:56:15;15.20;76.50
84176;DHT22;74306;40.114;18.304;2024-01-15T14:58:45;15.10;76.60
84176;DHT22;74306;40.114;18.304;2024-01-15T15:01:14;15.10;76.70
84176;DHT22;74306;40.114;18.304;2024-01-15T15:03:43;15.20;76.70
84176;DHT22;74306;40.114;18.304;2024-01-15T15:06:14;15.30;76.30
84176;DHT22;74306;40.114;18.304;2024-01-15T15:08:44;15.20;76.40
84176;DHT22;74306;40.114;18.304;2024-01-15T15:11:13;15.10;76.80
84176;DHT22;74306;40.114;18.304;2024-01-15T15:13:42;15.20;76.90
84176;DHT22;74306;40.114;18.304;2024-01-15T15:16:12;15.20;76.60
84176;DHT22;74306;40.114;18.304;2024-01-15T15:18:41;15.20;76.60
84176;DHT22;74306;40.114;18.304;2024-01-15T15:21:14;15.20;76.60
84176;DHT22;74306;40.114;18.304;2024-01-15T15:23:43;15.10;76.90
84176;DHT22;74306;40.114;18.304;2024-01-15T15:26:12;15.00;77.20
84176;DHT22;74306;40.114;18.304;2024-01-15T15:28:42;15.00;77.20
84176;DHT22;74306;40.114;18.304;2024-01-15T15:31:11;15.00;77.10
84176;DHT22;74306;40.114;18.304;2024-01-15T15:33:40;14.90;77.40